Portada
METAR-TAF:

METAR-TAF

Aeropuertos :

Cognac, Francia

latitud: 45-40N, longitud: 000-19W, altitud: 30 m

Observación

El informe se hizo hace 17 minutos, a las 04:30 UTC
Viento 3 kt del este
Temperatura 10°C
Humedad 100%
Presión 1015 hPa
Visibilidad: 0550 m
Cielo nuboso a una altura de 300 ft
niebla en bancos

METAR: LFBG 080430Z AUTO 08003KT 3700 0550 R23/0550D BCFG BKN003 10/10 Q1015

Hora: 06:47 (04:47 UTC)

Pronóstico

El informe se hizo hace 14 horas y 47 minutos, a las 14:00 UTC
Pronóstico válido del 07 a las 15 UTC al 08 a las 15 UTC
Viento 5 kt del oeste-noroeste
Visibilidad 10 km o más
Nubes dispersas a una altura de 4000 ft
Probabilidad 40%
del 08 a las 02 UTC al 08 a las 07 UTC
Visibilidad: 0800 m
niebla

TAF: LFBG 071400Z 0715/0815 29005KT 9999 SCT040 PROB40 0802/0807 0800 FG

Observaciones y pronósticos meteorológicos de más de 4000 aeropuertos (mensajes METAR y TAF).

Los puntos amarillos y rojos representan las estaciones disponibles.

Ponga el ratón en el punto deseado para ver el nombre de la estación.

Haga clic para ver las observaciones y los pronósticos meteorológicos.

Para cambiar el mapa : haga clic en los botones verdes con una cruz de color negro para hacer un zoom, en el botón verde con un guión para alejar o en las flechas verdes para mapas adyacentes.


METAR-TAF: